Time;durP1;ratioP1;P1;durP2;ratioP2;P2;SDS_P1;SDS_P2;PMS_P1;PMS_P2;Temp;Humidity;BMP_temperature;BMP_pressure;BME280_temperature;BME280_humidity;BME280_pressure;Samples;Min_cycle;Max_cycle;Signal;HPM_P1;HPM_P2
2023/03/31 00:02:13;;;;;;;4.93;1.20;;;10.30;99.90;;;9.80;100.00;96636.84;4995969;28;20806;-36
2023/03/31 00:04:45;;;;;;;3.97;1.65;;;10.30;99.90;;;9.75;100.00;96636.19;5002534;28;20164;-36
2023/03/31 00:07:13;;;;;;;9.63;1.38;;;10.20;99.90;;;9.72;100.00;96636.31;4985330;28;20065;-38
2023/03/31 00:09:40;;;;;;;4.28;1.23;;;10.20;99.90;;;9.68;100.00;96635.59;5011366;28;20025;-37
2023/03/31 00:12:06;;;;;;;6.30;1.60;;;10.20;99.90;;;9.66;100.00;96639.25;5007930;28;20025;-37
2023/03/31 00:14:32;;;;;;;2.72;1.20;;;10.20;99.90;;;9.67;100.00;96626.00;4992853;28;20654;-36
2023/03/31 00:16:58;;;;;;;5.68;1.55;;;10.10;99.90;;;9.68;100.00;96622.44;4993254;28;20041;-37
2023/03/31 00:19:23;;;;;;;4.43;1.33;;;10.20;99.90;;;9.73;100.00;96619.59;5004411;28;20144;-37
2023/03/31 00:21:50;;;;;;;2.50;1.35;;;10.20;99.90;;;9.72;100.00;96621.38;4987737;28;20049;-37
2023/03/31 00:24:17;;;;;;;6.93;1.55;;;10.20;99.90;;;9.72;100.00;96615.25;5009124;28;20499;-37
2023/03/31 00:26:43;;;;;;;4.53;1.65;;;10.20;99.90;;;9.78;100.00;96614.09;5008006;28;20117;-37
2023/03/31 00:29:11;;;;;;;5.28;1.40;;;10.30;99.90;;;9.81;100.00;96603.44;5010649;28;20037;-37
2023/03/31 00:31:37;;;;;;;6.05;1.80;;;10.30;99.90;;;9.83;100.00;96604.22;5008591;28;20033;-37
2023/03/31 00:34:04;;;;;;;4.60;1.63;;;10.30;99.90;;;9.84;100.00;96591.00;5012885;28;20112;-37
2023/03/31 00:36:31;;;;;;;3.95;1.63;;;10.40;99.90;;;9.92;100.00;96594.13;5004656;28;20045;-37
2023/03/31 00:39:08;;;;;;;6.40;1.85;;;10.40;99.90;;;9.98;100.00;96594.75;4984275;28;20029;-37
2023/03/31 00:41:36;;;;;;;4.30;1.60;;;10.40;99.90;;;10.05;100.00;96583.84;4996042;28;20055;-37
2023/03/31 00:44:17;;;;;;;4.50;1.40;;;10.50;99.90;;;10.04;100.00;96582.13;5006546;28;20056;-37
2023/03/31 00:47:14;;;;;;;6.25;1.73;;;10.50;99.90;;;10.05;100.00;96575.97;5005240;28;20144;-36
2023/03/31 00:49:44;;;;;;;7.00;1.52;;;10.50;99.90;;;10.06;100.00;96582.06;4996345;28;20501;-37
2023/03/31 00:52:26;;;;;;;5.47;1.20;;;10.50;99.90;;;10.06;100.00;96579.44;4995068;28;20120;-37
2023/03/31 00:55:06;;;;;;;4.60;2.05;;;10.50;99.90;;;10.06;100.00;96577.66;5009063;28;20029;-36
2023/03/31 00:57:38;;;;;;;3.03;1.50;;;10.50;99.90;;;10.05;100.00;96575.97;5012016;28;20026;-37
2023/03/31 01:00:14;;;;;;;4.75;1.75;;;10.50;99.90;;;10.08;100.00;96580.22;5013192;28;20426;-37
2023/03/31 01:02:51;;;;;;;5.15;1.67;;;10.60;99.90;;;10.08;100.00;96575.78;4995680;28;20130;-37
2023/03/31 01:05:26;;;;;;;6.03;1.60;;;10.60;99.90;;;10.08;100.00;96567.88;4996772;28;20034;-36
2023/03/31 01:07:53;;;;;;;4.50;1.52;;;10.60;99.90;;;10.08;100.00;96564.41;5012081;28;20332;-37
2023/03/31 01:10:19;;;;;;;5.63;1.40;;;10.60;99.90;;;9.94;100.00;96544.00;5014446;28;20158;-37
2023/03/31 01:12:51;;;;;;;5.32;1.63;;;10.60;99.90;;;10.12;100.00;96565.94;5006441;28;20108;-37
2023/03/31 01:15:17;;;;;;;8.25;1.90;;;10.60;99.90;;;10.13;100.00;96555.34;4989509;28;20036;-37
2023/03/31 01:17:44;;;;;;;4.90;1.50;;;10.60;99.90;;;10.18;100.00;96551.66;5007675;28;20051;-37
2023/03/31 01:20:34;;;;;;;3.78;1.65;;;10.70;99.90;;;10.24;100.00;96535.53;4979026;28;20056;-37
2023/03/31 01:23:22;;;;;;;10.30;1.83;;;10.70;99.90;;;10.26;100.00;96521.34;5008417;28;20533;-37
2023/03/31 01:26:21;;;;;;;4.75;1.77;;;10.80;99.90;;;10.25;100.00;96510.91;5006810;28;20045;-37
2023/03/31 01:28:58;;;;;;;5.47;1.73;;;10.70;99.90;;;10.23;100.00;96497.78;5003465;28;20049;-37
2023/03/31 01:31:38;;;;;;;7.05;1.95;;;10.70;99.90;;;10.24;100.00;96503.91;4991407;28;20033;-36
2023/03/31 01:34:40;;;;;;;4.18;1.52;;;10.70;99.90;;;10.24;100.00;96504.75;5004328;28;20071;-36
2023/03/31 01:37:16;;;;;;;9.38;1.65;;;10.70;99.90;;;10.27;100.00;96514.31;5000293;28;20061;-37
2023/03/31 01:40:23;;;;;;;6.50;1.80;;;10.80;99.90;;;10.28;100.00;96508.97;5002265;28;20029;-37
2023/03/31 01:43:01;;;;;;;7.43;1.77;;;10.80;99.90;;;10.15;100.00;96496.47;4990785;28;20034;-37
2023/03/31 01:45:52;;;;;;;5.82;1.95;;;10.70;99.90;;;10.29;100.00;96530.88;5006714;28;20045;-36
2023/03/31 01:48:43;;;;;;;6.63;1.55;;;10.80;99.90;;;10.31;100.00;96527.28;5002906;28;20040;-37
2023/03/31 01:51:17;;;;;;;6.57;2.17;;;10.80;99.90;;;10.35;100.00;96530.59;5000105;28;20029;-36
2023/03/31 01:54:14;;;;;;;10.52;1.80;;;10.80;99.90;;;10.40;100.00;96525.13;4999799;28;20201;-37
2023/03/31 01:56:57;;;;;;;7.32;1.45;;;10.80;99.90;;;10.38;100.00;96527.81;4999902;28;20025;-36
2023/03/31 01:59:48;;;;;;;7.47;1.80;;;10.90;99.90;;;10.36;100.00;96536.75;4990589;28;20031;-36
2023/03/31 02:02:35;;;;;;;7.55;1.73;;;10.90;99.90;;;10.37;100.00;96531.38;4985959;28;20033;-37
2023/03/31 02:05:12;;;;;;;5.00;1.42;;;10.80;99.90;;;10.35;100.00;96530.59;5007534;28;20128;-37
2023/03/31 02:07:47;;;;;;;7.20;1.73;;;10.80;99.90;;;10.25;100.00;96518.81;4988554;28;20057;-37
2023/03/31 02:10:15;;;;;;;7.82;1.50;;;10.80;99.90;;;10.29;100.00;96526.47;5004543;28;20053;-37
2023/03/31 02:12:43;;;;;;;4.82;1.40;;;10.80;99.90;;;10.20;100.00;96521.66;4987688;28;20029;-37
2023/03/31 02:15:17;;;;;;;7.45;1.90;;;10.70;99.90;;;10.16;100.00;96521.88;4990537;28;20025;-37
2023/03/31 02:17:47;;;;;;;5.80;1.58;;;10.70;99.90;;;10.09;100.00;96511.66;4992734;28;20041;-37
2023/03/31 02:20:17;;;;;;;4.13;1.55;;;10.60;99.90;;;10.09;100.00;96503.75;5008965;28;20040;-37
2023/03/31 02:22:48;;;;;;;4.43;1.40;;;10.60;99.90;;;10.05;100.00;96498.69;5065760;23;20123;-36
2023/03/31 02:25:19;;;;;;;7.50;1.70;;;10.50;99.90;;;9.96;100.00;96492.13;5050395;28;20822;-35
2023/03/31 02:28:08;;;;;;;4.10;1.67;;;10.40;99.90;;;9.86;100.00;96491.69;5050774;28;20331;-35
2023/03/31 02:31:19;;;;;;;7.03;1.60;;;10.30;99.90;;;9.78;100.00;96479.81;5049370;28;20057;-36
2023/03/31 02:33:44;;;;;;;5.93;1.58;;;10.30;99.90;;;9.70;100.00;96467.88;5050542;28;20055;-36
2023/03/31 02:36:10;;;;;;;4.25;1.55;;;10.20;99.90;;;9.65;100.00;96455.88;5029043;28;20032;-36
2023/03/31 02:38:43;;;;;;;4.18;1.65;;;10.10;99.90;;;9.59;100.00;96446.50;5029114;28;20040;-36
2023/03/31 02:41:09;;;;;;;8.02;1.60;;;10.10;99.90;;;9.59;100.00;96437.75;5033364;28;20535;-36
2023/03/31 02:43:35;;;;;;;8.35;1.95;;;10.10;99.90;;;9.56;100.00;96420.31;5031023;28;20029;-36
2023/03/31 02:46:01;;;;;;;3.88;1.38;;;10.10;99.90;;;9.52;100.00;96411.72;5030628;28;20136;-36
2023/03/31 02:48:32;;;;;;;5.97;1.73;;;10.00;99.90;;;9.48;100.00;96393.53;5033496;28;20505;-36
2023/03/31 02:51:20;;;;;;;5.87;1.60;;;10.00;99.90;;;9.46;100.00;96388.34;5033741;28;20060;-37
2023/03/31 02:54:38;;;;;;;9.73;1.98;;;10.00;99.90;;;9.45;100.00;96388.41;5044429;28;20279;-36
2023/03/31 02:57:35;;;;;;;4.60;1.90;;;10.00;99.90;;;9.43;100.00;96390.28;5031838;28;20028;-36
2023/03/31 03:00:30;;;;;;;6.75;1.88;;;9.90;99.90;;;9.41;100.00;96376.34;5030362;28;20047;-36
2023/03/31 03:03:20;;;;;;;4.65;1.67;;;9.90;99.90;;;9.36;100.00;96371.28;5049103;28;20025;-36
2023/03/31 03:06:21;;;;;;;4.53;1.75;;;9.90;99.90;;;9.32;100.00;96352.16;5046029;28;20496;-37
2023/03/31 03:09:25;;;;;;;3.42;1.38;;;9.80;99.90;;;9.31;100.00;96345.22;5047752;28;20343;-36
2023/03/31 03:12:24;;;;;;;3.90;1.65;;;9.80;99.90;;;9.29;100.00;96326.00;5027506;28;20036;-36
2023/03/31 03:15:01;;;;;;;4.68;1.98;;;9.80;99.90;;;9.27;100.00;96317.31;5029199;28;20064;-35
2023/03/31 03:17:35;;;;;;;3.08;1.30;;;9.80;99.90;;;9.23;100.00;96310.53;5035311;28;20136;-37
2023/03/31 03:20:06;;;;;;;3.97;1.40;;;9.70;99.90;;;9.18;100.00;96304.63;5027830;28;20419;-36
2023/03/31 03:22:32;;;;;;;3.15;1.27;;;9.70;99.90;;;9.09;100.00;96291.94;5048892;28;20087;-36
2023/03/31 03:24:58;;;;;;;4.72;1.80;;;9.60;99.90;;;8.99;100.00;96278.41;5029546;28;20032;-36
2023/03/31 03:27:24;;;;;;;8.45;1.55;;;9.50;99.90;;;8.91;100.00;96267.38;5026437;28;21220;-36
2023/03/31 03:29:50;;;;;;;4.85;1.48;;;9.40;99.90;;;8.82;100.00;96260.78;5028660;28;20036;-36
2023/03/31 03:32:15;;;;;;;3.50;1.63;;;9.30;99.90;;;8.75;100.00;96269.91;5023082;28;20371;-36
2023/03/31 03:34:41;;;;;;;3.08;1.38;;;9.30;99.90;;;8.67;100.00;96253.63;5026138;28;20064;-36
2023/03/31 03:37:07;;;;;;;4.43;1.63;;;9.20;99.90;;;8.64;100.00;96245.91;5018395;28;20404;-36
2023/03/31 03:39:33;;;;;;;4.13;1.75;;;9.10;99.90;;;8.58;100.00;96244.44;5029088;28;20048;-36
2023/03/31 03:41:58;;;;;;;6.53;1.80;;;9.10;99.90;;;8.62;100.00;96239.88;5027340;28;20470;-36
2023/03/31 03:44:24;;;;;;;6.40;2.00;;;9.10;99.90;;;8.66;100.00;96238.78;5029563;28;20116;-36
2023/03/31 03:46:50;;;;;;;6.20;2.00;;;9.20;99.90;;;8.63;100.00;96231.88;5029232;28;20036;-36
2023/03/31 03:49:16;;;;;;;5.18;1.77;;;9.20;99.90;;;8.73;100.00;96235.78;5025284;28;20459;-36
2023/03/31 03:51:41;;;;;;;3.30;1.67;;;9.20;99.90;;;8.77;100.00;96218.97;5034911;28;20051;-36
2023/03/31 03:54:07;;;;;;;5.55;1.90;;;9.30;99.90;;;8.81;100.00;96203.91;5033414;28;20044;-36
2023/03/31 03:56:33;;;;;;;3.70;1.67;;;9.30;99.90;;;8.85;100.00;96205.44;5022450;28;20102;-36
2023/03/31 03:58:59;;;;;;;5.15;1.83;;;9.40;99.90;;;8.86;100.00;96196.59;5025651;28;20024;-36
2023/03/31 04:01:24;;;;;;;4.97;2.03;;;9.40;99.90;;;8.86;100.00;96187.88;5026554;28;20041;-36
2023/03/31 04:03:50;;;;;;;3.50;1.50;;;9.40;99.90;;;8.79;100.00;96182.06;5032377;28;20033;-36
2023/03/31 04:06:16;;;;;;;5.60;2.15;;;9.40;99.90;;;8.69;100.00;96183.47;5033794;28;20575;-36
2023/03/31 04:08:42;;;;;;;7.70;2.08;;;9.20;99.90;;;8.60;100.00;96164.56;5024205;28;20032;-36
2023/03/31 04:11:16;;;;;;;5.15;2.17;;;9.10;99.90;;;8.45;100.00;96157.41;5026505;28;20114;-36
2023/03/31 04:13:42;;;;;;;5.88;2.20;;;9.00;99.90;;;8.32;100.00;96153.66;5028883;28;20512;-36
2023/03/31 04:16:09;;;;;;;6.63;2.17;;;8.90;99.90;;;8.23;100.00;96147.91;5027689;28;20565;-36
2023/03/31 04:18:36;;;;;;;5.95;2.25;;;8.80;99.90;;;8.16;100.00;96143.88;5021644;28;20515;-36
2023/03/31 04:21:05;;;;;;;4.57;2.15;;;8.70;99.90;;;8.22;100.00;96129.63;5034493;28;20028;-36
2023/03/31 04:23:41;;;;;;;5.57;2.00;;;8.80;99.90;;;8.27;100.00;96124.97;5048806;28;20397;-36
2023/03/31 04:26:11;;;;;;;10.85;2.78;;;8.80;99.90;;;8.34;100.00;96126.38;5033410;28;20107;-36
2023/03/31 04:28:41;;;;;;;7.25;2.60;;;8.90;99.90;;;8.44;100.00;96118.13;5027860;28;20033;-36
2023/03/31 04:31:09;;;;;;;11.15;2.70;;;9.00;99.90;;;8.51;100.00;96109.00;5031751;28;20037;-36
2023/03/31 04:33:38;;;;;;;6.53;2.83;;;9.00;99.90;;;8.55;100.00;96114.03;5030233;28;20031;-36
2023/03/31 04:36:16;;;;;;;8.57;2.92;;;9.10;99.90;;;8.68;100.00;96127.41;5032246;28;20050;-36
2023/03/31 04:38:55;;;;;;;5.70;2.53;;;9.20;99.90;;;8.70;100.00;96116.81;5034884;28;20028;-36
2023/03/31 04:41:23;;;;;;;5.93;2.58;;;9.30;99.90;;;8.80;100.00;96118.06;5031727;28;20025;-36
2023/03/31 04:43:49;;;;;;;6.28;2.88;;;9.40;99.90;;;8.88;100.00;96113.28;5030474;28;20119;-36
2023/03/31 04:46:15;;;;;;;9.90;3.17;;;9.40;99.90;;;8.97;100.00;96115.44;5021364;28;20090;-36
2023/03/31 04:48:41;;;;;;;6.50;2.50;;;9.50;99.90;;;9.00;100.00;96103.91;5033022;28;20025;-36
2023/03/31 04:51:07;;;;;;;6.18;2.47;;;9.60;99.90;;;8.98;100.00;96080.31;5031750;28;20033;-36
2023/03/31 04:53:33;;;;;;;3.63;2.17;;;9.60;99.90;;;9.03;100.00;96101.13;5026620;28;20021;-36
2023/03/31 04:55:59;;;;;;;7.85;2.38;;;9.60;99.90;;;9.06;100.00;96098.34;5033839;28;20040;-36
2023/03/31 04:58:24;;;;;;;6.00;2.83;;;9.60;99.90;;;9.03;100.00;96097.66;5032487;28;20617;-36
2023/03/31 05:00:51;;;;;;;5.88;2.30;;;9.60;99.90;;;9.04;100.00;96099.34;5031658;28;20102;-35
2023/03/31 05:03:17;;;;;;;5.93;2.80;;;9.60;99.90;;;9.03;100.00;96095.03;5029724;28;20020;-36
2023/03/31 05:05:42;;;;;;;6.78;2.47;;;9.60;99.90;;;8.95;100.00;96082.25;5032673;28;20815;-35
2023/03/31 05:08:08;;;;;;;6.55;2.65;;;9.50;99.90;;;9.01;100.00;96089.84;5018029;28;20029;-36
2023/03/31 05:10:34;;;;;;;7.43;2.80;;;9.50;99.90;;;8.98;100.00;96087.34;5021539;28;20108;-36
2023/03/31 05:13:00;;;;;;;7.50;2.92;;;9.60;99.90;;;9.00;100.00;96092.53;5018775;28;20158;-36
2023/03/31 05:15:25;;;;;;;4.22;2.38;;;9.50;99.90;;;9.00;100.00;96108.31;5016679;28;20256;-36
2023/03/31 05:17:51;;;;;;;6.88;2.72;;;9.50;99.90;;;8.97;100.00;96112.81;5026595;28;20042;-36
2023/03/31 05:20:19;;;;;;;8.50;2.75;;;9.50;99.90;;;8.95;100.00;96125.19;5026578;28;20347;-36
2023/03/31 05:22:45;;;;;;;8.60;3.20;;;9.50;99.90;;;8.97;100.00;96140.84;5020226;28;20136;-36
2023/03/31 05:25:17;;;;;;;12.35;3.17;;;9.50;99.90;;;8.94;100.00;96157.66;5022568;28;20363;-36
2023/03/31 05:27:46;;;;;;;10.57;2.80;;;9.50;99.90;;;8.94;100.00;96149.75;5026274;28;20128;-36
2023/03/31 05:30:16;;;;;;;6.43;2.60;;;9.50;99.90;;;8.91;100.00;96147.28;5027206;28;20043;-36
2023/03/31 05:32:42;;;;;;;9.10;3.38;;;9.40;99.90;;;8.88;100.00;96142.19;5023684;28;20028;-36
2023/03/31 05:35:09;;;;;;;9.85;3.08;;;9.40;99.90;;;8.79;100.00;96134.75;5024841;28;20036;-36
2023/03/31 05:37:35;;;;;;;10.65;3.00;;;9.40;99.90;;;8.81;100.00;96139.94;5029681;28;20119;-36
2023/03/31 05:40:03;;;;;;;7.13;3.10;;;9.30;99.90;;;8.77;100.00;96128.72;5030220;28;23993;-36
2023/03/31 05:42:29;;;;;;;6.22;3.03;;;9.30;99.90;;;8.72;100.00;96114.94;5028040;28;20028;-36
2023/03/31 05:44:56;;;;;;;9.45;3.55;;;9.20;99.90;;;8.74;100.00;96120.97;5027116;28;20481;-36
2023/03/31 05:47:22;;;;;;;8.55;3.25;;;9.20;99.90;;;8.71;100.00;96116.75;5020614;28;20043;-36
2023/03/31 05:49:47;;;;;;;10.82;3.65;;;9.20;99.90;;;8.70;100.00;96111.56;5019833;28;20793;-36
2023/03/31 05:52:13;;;;;;;8.32;3.55;;;9.20;99.90;;;8.69;100.00;96092.31;5017170;28;20481;-36
2023/03/31 05:54:40;;;;;;;13.65;3.33;;;9.20;99.90;;;8.64;100.00;96081.19;5020881;28;20268;-36
2023/03/31 05:57:06;;;;;;;9.05;3.60;;;9.20;99.90;;;8.69;100.00;96083.59;5023778;28;20060;-37
2023/03/31 05:59:34;;;;;;;9.00;3.67;;;9.20;99.90;;;8.68;100.00;96074.00;5024241;28;20021;-36
2023/03/31 06:02:00;;;;;;;12.70;3.35;;;9.20;99.90;;;8.64;100.00;96067.19;5023969;28;20025;-37
2023/03/31 06:04:26;;;;;;;10.07;3.40;;;9.20;99.90;;;8.66;100.00;96065.34;5025324;28;20033;-37
2023/03/31 06:06:52;;;;;;;9.15;3.25;;;9.20;99.90;;;8.67;100.00;96061.75;5019110;28;20068;-37
2023/03/31 06:09:19;;;;;;;9.88;3.63;;;9.20;99.90;;;8.64;100.00;96060.16;5018280;28;20391;-37
2023/03/31 06:11:45;;;;;;;10.38;4.20;;;9.20;99.90;;;8.64;100.00;96051.44;5019405;28;20037;-37
2023/03/31 06:14:11;;;;;;;8.88;3.47;;;9.20;99.90;;;8.63;100.00;96053.19;5029241;28;20068;-36
2023/03/31 06:16:37;;;;;;;9.38;3.13;;;9.20;99.90;;;8.45;100.00;96012.94;5026897;28;20149;-36
2023/03/31 06:19:02;;;;;;;9.40;3.50;;;9.20;99.90;;;8.65;100.00;96045.22;5030879;28;20272;-37
2023/03/31 06:21:28;;;;;;;5.80;3.35;;;9.20;99.90;;;8.65;100.00;96026.84;5025970;28;21545;-37
2023/03/31 06:23:54;;;;;;;11.75;3.25;;;9.20;99.90;;;8.71;100.00;96029.16;5026506;28;20493;-37
2023/03/31 06:26:21;;;;;;;8.88;3.40;;;9.20;99.90;;;8.73;100.00;96019.41;5032450;28;20396;-37
2023/03/31 06:28:47;;;;;;;6.30;3.30;;;9.30;99.90;;;8.77;100.00;96027.09;5024375;28;20033;-37
2023/03/31 06:31:19;;;;;;;7.15;3.00;;;9.30;99.90;;;8.84;100.00;96018.88;5028798;28;20029;-36
2023/03/31 06:33:45;;;;;;;8.30;3.50;;;9.40;99.90;;;8.88;100.00;96021.25;5023602;28;20039;-37
2023/03/31 06:36:14;;;;;;;8.75;3.63;;;9.40;99.90;;;8.90;100.00;96021.16;5018176;28;20310;-37
2023/03/31 06:38:40;;;;;;;5.22;3.15;;;9.40;99.90;;;8.90;100.00;96019.41;5017253;28;20203;-37
2023/03/31 06:41:07;;;;;;;5.85;3.10;;;9.40;99.90;;;8.90;100.00;96019.41;5024991;28;20371;-37
2023/03/31 06:43:34;;;;;;;7.00;3.75;;;9.40;99.90;;;8.86;100.00;96023.09;5020495;28;20032;-37
2023/03/31 06:46:00;;;;;;;7.50;3.80;;;9.40;99.90;;;8.77;100.00;96018.31;5022166;28;20060;-37
2023/03/31 06:48:26;;;;;;;9.95;3.90;;;9.30;99.90;;;8.78;100.00;96020.88;5022896;28;20017;-36
2023/03/31 06:50:53;;;;;;;12.05;3.85;;;9.30;99.90;;;8.75;100.00;96036.78;5021243;28;20686;-36
2023/03/31 06:53:20;;;;;;;9.43;4.00;;;9.30;99.90;;;8.72;100.00;96038.72;5026420;28;20670;-37
2023/03/31 06:55:47;;;;;;;7.50;3.50;;;9.30;99.90;;;8.73;100.00;96045.69;5021459;28;20049;-36
2023/03/31 06:58:12;;;;;;;11.73;4.30;;;9.20;99.90;;;8.68;100.00;96061.69;5030007;28;20038;-37
2023/03/31 07:00:39;;;;;;;11.10;4.30;;;9.20;99.90;;;8.60;100.00;96074.38;5030763;28;20060;-37
2023/03/31 07:03:05;;;;;;;13.68;4.93;;;9.20;99.90;;;8.63;100.00;96086.50;5024159;28;20730;-38
2023/03/31 07:05:31;;;;;;;8.32;4.22;;;9.20;99.90;;;8.66;100.00;96099.50;5025448;28;20047;-37
2023/03/31 07:07:59;;;;;;;7.45;4.05;;;9.20;99.90;;;8.68;100.00;96101.13;5030855;28;20589;-37
2023/03/31 07:10:27;;;;;;;9.70;4.47;;;9.20;99.90;;;8.67;100.00;96091.53;5033043;28;20064;-37
2023/03/31 07:12:53;;;;;;;11.18;4.60;;;9.20;99.90;;;8.66;100.00;96084.56;5028826;28;20031;-37
2023/03/31 07:15:19;;;;;;;7.63;4.13;;;9.20;99.90;;;8.68;100.00;96074.00;5021875;28;20037;-37
2023/03/31 07:17:45;;;;;;;7.97;3.95;;;9.20;99.90;;;8.71;100.00;96026.53;5032012;28;20032;-37
2023/03/31 07:20:14;;;;;;;7.05;3.47;;;9.20;99.90;;;8.78;100.00;96002.47;5035173;28;20387;-36
2023/03/31 07:22:44;;;;;;;11.07;3.63;;;9.30;99.90;;;8.82;100.00;96023.34;5032691;28;20083;-36
2023/03/31 07:25:15;;;;;;;7.72;3.03;;;9.30;99.90;;;8.82;100.00;95984.75;5032261;28;20044;-37
2023/03/31 07:27:41;;;;;;;4.53;3.00;;;9.40;99.90;;;8.88;100.00;96002.88;5032060;28;20098;-36
2023/03/31 07:30:14;;;;;;;9.43;2.85;;;9.40;99.90;;;8.88;100.00;95994.09;5030771;28;20055;-37
2023/03/31 07:32:40;;;;;;;7.78;3.20;;;9.40;99.90;;;8.97;100.00;95994.50;5032467;28;20021;-36
2023/03/31 07:35:10;;;;;;;8.52;2.90;;;9.50;99.90;;;8.87;100.00;95966.13;5030471;28;20016;-36
2023/03/31 07:37:42;;;;;;;7.05;2.67;;;9.60;99.90;;;9.06;100.00;96005.44;5027472;28;20082;-36
2023/03/31 07:40:12;;;;;;;6.97;2.20;;;9.60;99.90;;;9.13;100.00;96004.16;5034168;28;20500;-37
2023/03/31 07:42:37;;;;;;;4.85;2.10;;;9.60;99.90;;;8.94;100.00;95984.13;5025772;28;20121;-37
2023/03/31 07:45:07;;;;;;;5.30;2.08;;;9.60;99.90;;;8.97;100.00;95986.59;5034764;28;20033;-36
2023/03/31 07:47:32;;;;;;;3.90;2.33;;;9.60;99.90;;;9.14;100.00;95996.19;5031243;28;20592;-36
2023/03/31 07:49:58;;;;;;;4.55;1.75;;;9.70;99.90;;;9.19;100.00;96003.84;5025825;28;20036;-37
2023/03/31 07:52:24;;;;;;;3.92;1.73;;;9.70;99.90;;;9.21;100.00;96002.00;5032492;28;20029;-36
2023/03/31 07:54:50;;;;;;;2.63;1.50;;;9.70;99.90;;;9.24;100.00;95986.06;5023950;28;20094;-37
2023/03/31 07:57:18;;;;;;;1.73;1.23;;;9.70;99.90;;;9.23;100.00;95984.34;5032740;28;20033;-36
2023/03/31 07:59:45;;;;;;;5.72;1.63;;;9.70;99.90;;;9.20;100.00;95983.66;5031274;28;20045;-37
2023/03/31 08:02:13;;;;;;;3.38;1.58;;;9.70;99.90;;;8.97;100.00;95955.03;5028661;28;20032;-37
2023/03/31 08:04:42;;;;;;;4.68;1.10;;;9.70;99.90;;;9.20;100.00;95979.25;5024966;28;20037;-37
2023/03/31 08:07:10;;;;;;;2.42;1.00;;;9.70;99.90;;;9.31;100.00;95986.53;5026659;28;20660;-37
2023/03/31 08:09:36;;;;;;;3.03;1.13;;;9.80;99.90;;;9.33;100.00;95976.78;5034372;28;20105;-37
2023/03/31 08:12:03;;;;;;;5.45;1.25;;;9.90;99.90;;;9.58;100.00;95994.69;5034611;28;20174;-37
2023/03/31 08:14:29;;;;;;;3.00;1.17;;;10.10;99.90;;;9.66;100.00;95992.50;5030119;28;20116;-37
2023/03/31 08:16:56;;;;;;;3.85;1.33;;;10.20;99.90;;;9.79;100.00;95981.28;5031819;28;20045;-37
2023/03/31 08:19:23;;;;;;;2.28;0.90;;;10.30;99.90;;;9.88;100.00;95978.97;5027646;28;20074;-37
2023/03/31 08:21:50;;;;;;;3.42;1.00;;;10.40;99.90;;;10.03;100.00;95979.91;5053743;22;20049;-37
2023/03/31 08:24:15;;;;;;;2.70;1.00;;;10.50;99.90;;;10.16;100.00;95985.31;5027139;28;20399;-37
2023/03/31 08:26:41;;;;;;;2.25;0.90;;;10.60;99.90;;;10.25;100.00;95987.41;5026753;28;20036;-37
2023/03/31 08:29:07;;;;;;;2.17;0.98;;;10.70;99.90;;;10.35;100.00;95979.00;5025187;28;20084;-37
2023/03/31 08:31:33;;;;;;;2.05;0.93;;;10.80;99.90;;;10.42;100.00;95968.00;5030615;28;20485;-37
2023/03/31 08:33:58;;;;;;;1.85;0.93;;;10.90;99.90;;;10.48;100.00;95970.28;5032056;28;20068;-37
2023/03/31 08:36:26;;;;;;;2.50;0.90;;;11.00;99.90;;;10.55;100.00;95951.44;5030560;28;20045;-37
2023/03/31 08:38:53;;;;;;;3.80;1.20;;;11.00;99.90;;;10.65;100.00;95969.25;5029351;28;20033;-37
2023/03/31 08:41:43;;;;;;;3.58;0.88;;;11.10;99.90;;;10.72;100.00;95972.38;5025691;28;20041;-37
2023/03/31 08:44:34;;;;;;;2.22;1.00;;;11.20;99.90;;;10.87;100.00;95960.91;5020952;28;20481;-37
2023/03/31 08:47:02;;;;;;;2.63;1.10;;;11.30;99.90;;;11.00;100.00;95966.28;5014265;28;20323;-37
2023/03/31 08:49:40;;;;;;;7.13;1.50;;;11.40;99.90;;;10.95;100.00;95935.88;5014916;28;20029;-37
2023/03/31 08:52:11;;;;;;;5.25;1.20;;;11.50;99.90;;;11.17;100.00;95969.66;5008733;28;20029;-38
2023/03/31 08:54:48;;;;;;;4.20;1.20;;;11.60;99.90;;;11.27;100.00;95971.63;5012524;28;20154;-38
2023/03/31 08:57:25;;;;;;;2.53;1.00;;;11.70;99.90;;;11.43;100.00;95958.31;5033754;28;20043;-38
2023/03/31 08:59:51;;;;;;;4.28;1.35;;;11.80;99.90;;;11.56;100.00;95973.41;5010441;28;20218;-38
2023/03/31 09:02:40;;;;;;;2.90;1.10;;;12.00;99.90;;;11.71;100.00;95972.41;5026640;28;20044;-38
2023/03/31 09:05:34;;;;;;;5.30;1.52;;;12.20;99.90;;;11.83;100.00;95968.97;5030924;28;20706;-38
2023/03/31 09:08:32;;;;;;;2.50;1.10;;;12.30;99.90;;;11.97;100.00;95965.47;5019478;28;20041;-38
2023/03/31 09:11:33;;;;;;;2.97;1.20;;;12.40;99.90;;;12.13;100.00;95969.72;5030448;28;20037;-38
2023/03/31 09:14:38;;;;;;;3.05;1.00;;;12.50;99.90;;;12.23;100.00;95954.97;5006343;28;20112;-38
2023/03/31 09:17:15;;;;;;;3.90;1.20;;;12.70;99.90;;;12.25;100.00;95944.28;5031044;28;20033;-38
2023/03/31 09:19:49;;;;;;;7.15;1.20;;;12.70;99.90;;;12.34;100.00;95946.31;5010507;28;20032;-38
2023/03/31 09:22:22;;;;;;;4.80;1.23;;;12.80;99.90;;;12.40;100.00;95945.91;5010487;28;20028;-38
2023/03/31 09:25:11;;;;;;;;;;;12.80;99.90;;;12.38;100.00;95958.38;5008912;28;20060;-38
2023/03/31 09:27:41;;;;;;;4.60;1.40;;;12.80;99.90;;;12.42;100.00;95951.94;5024785;28;19916;-38
2023/03/31 09:30:24;;;;;;;3.20;1.10;;;12.90;99.90;;;12.47;100.00;95957.78;5010548;28;20065;-38
2023/03/31 09:33:02;;;;;;;4.28;1.00;;;13.00;99.90;;;12.45;100.00;95942.94;5013785;28;20033;-38
2023/03/31 09:35:32;;;;;;;3.40;0.95;;;13.00;99.90;;;12.16;100.00;95924.59;5011402;28;20040;-38
2023/03/31 09:37:58;;;;;;;3.72;1.20;;;12.90;99.90;;;12.43;98.89;95980.06;5025999;28;20083;-38
2023/03/31 09:40:27;;;;;;;3.03;0.93;;;12.90;99.90;;;12.50;98.65;95970.75;5016608;28;20472;-38
2023/03/31 09:43:22;;;;;;;5.82;1.15;;;13.00;99.90;;;12.70;99.86;95981.78;5029800;28;20043;-38
2023/03/31 09:45:49;;;;;;;5.68;1.73;;;13.20;99.90;;;12.74;90.37;95954.19;5020375;28;20048;-38
2023/03/31 09:48:37;;;;;;;5.07;1.17;;;13.30;99.90;;;12.66;91.76;95938.84;5030362;28;20032;-38
2023/03/31 09:51:15;;;;;;;3.10;1.00;;;13.30;99.90;;;12.77;92.27;95946.88;5011875;28;20567;-38
2023/03/31 09:54:01;;;;;;;3.30;1.17;;;13.30;99.90;;;12.78;87.67;95930.06;5026947;28;20433;-38
2023/03/31 09:56:41;;;;;;;9.07;1.30;;;13.40;99.90;;;13.14;83.60;95959.38;5017268;28;20168;-38
2023/03/31 09:59:45;;;;;;;6.95;1.42;;;13.60;99.90;;;13.41;77.36;95935.41;5032248;28;20028;-39
2023/03/31 10:02:33;;;;;;;7.15;1.42;;;13.90;99.90;;;13.66;73.81;95918.59;5025690;28;20037;-38
2023/03/31 10:04:59;;;;;;;3.55;1.30;;;14.30;99.90;;;13.99;68.85;95914.41;5023746;28;20029;-38
2023/03/31 10:07:25;;;;;;;3.92;1.33;;;14.60;99.90;;;14.13;69.76;95911.56;5009292;28;20052;-39
2023/03/31 10:09:55;;;;;;;8.60;1.33;;;14.80;99.90;;;14.26;68.97;95908.00;5009475;28;20041;-38
2023/03/31 10:12:25;;;;;;;6.45;1.30;;;14.90;99.90;;;14.22;68.21;95917.16;5025454;28;20053;-38
2023/03/31 10:14:53;;;;;;;4.30;1.17;;;14.80;99.90;;;14.11;72.70;95915.31;5006719;28;20095;-39
2023/03/31 10:17:23;;;;;;;7.63;1.33;;;14.70;99.90;;;14.14;75.98;95888.59;5031982;28;20033;-39
2023/03/31 10:19:56;;;;;;;4.15;1.00;;;14.70;99.90;;;14.14;68.71;95893.88;5028572;28;20512;-38
2023/03/31 10:22:22;;;;;;;5.80;1.60;;;14.70;99.90;;;14.22;69.29;95898.59;5027938;28;20041;-39
2023/03/31 10:24:50;;;;;;;5.75;1.48;;;14.80;99.90;;;14.25;69.11;95893.91;5030250;28;20040;-38
2023/03/31 10:27:28;;;;;;;5.90;1.45;;;14.80;99.90;;;14.30;64.83;95896.19;5027102;28;20029;-39
2023/03/31 10:29:57;;;;;;;7.32;1.42;;;14.90;99.90;;;14.54;66.69;95908.59;5017742;28;20044;-39
2023/03/31 10:32:27;;;;;;;7.90;1.40;;;15.10;99.90;;;14.76;62.95;95881.25;5013867;28;20126;-39
2023/03/31 10:35:02;;;;;;;6.10;1.70;;;15.30;99.90;;;14.69;62.71;95871.09;5028341;28;20029;-39
2023/03/31 10:37:30;;;;;;;8.38;1.50;;;15.30;99.90;;;14.87;65.68;95855.56;5032981;28;20045;-38
2023/03/31 10:40:15;;;;;;;3.88;1.13;;;15.40;99.90;;;15.06;59.02;95860.25;5036052;28;20040;-38
2023/03/31 10:42:45;;;;;;;5.07;1.40;;;15.70;99.90;;;15.20;59.60;95860.97;5016257;28;21598;-39